createdAt,value
2018-06-29T00:00:51.193Z,98.50
2018-06-29T00:02:54.983Z,98.70
2018-06-29T00:04:58.877Z,98.70
2018-06-29T00:07:02.628Z,99.10
2018-06-29T00:09:08.128Z,98.80
2018-06-29T00:11:12.011Z,99.10
2018-06-29T00:13:15.772Z,98.90
2018-06-29T00:15:19.808Z,99.00
2018-06-29T00:17:23.555Z,99.60
2018-06-29T00:19:27.470Z,99.70
2018-06-29T00:21:31.248Z,99.70
2018-06-29T00:23:35.054Z,99.80
2018-06-29T00:25:38.789Z,99.90
2018-06-29T00:27:42.734Z,99.90
2018-06-29T00:29:46.583Z,99.90
2018-06-29T00:31:51.797Z,99.90
2018-06-29T00:33:55.572Z,99.90
2018-06-29T00:35:59.528Z,99.90
2018-06-29T00:38:03.339Z,99.90
2018-06-29T00:40:07.282Z,99.90
2018-06-29T00:42:11.078Z,99.90
2018-06-29T00:44:14.986Z,99.90
2018-06-29T00:46:18.776Z,99.90
2018-06-29T00:48:22.624Z,99.90
2018-06-29T00:50:26.400Z,99.90
2018-06-29T00:52:30.278Z,99.90
2018-06-29T00:54:34.043Z,99.90
2018-06-29T00:56:38.135Z,99.90
2018-06-29T00:58:41.900Z,99.90
2018-06-29T01:00:45.851Z,99.90
2018-06-29T01:02:49.640Z,99.90
2018-06-29T01:04:53.525Z,99.90
2018-06-29T01:06:57.315Z,99.90
2018-06-29T01:09:01.190Z,99.90
2018-06-29T01:11:05.023Z,99.90
2018-06-29T01:13:09.118Z,99.90
2018-06-29T01:15:12.897Z,99.90
2018-06-29T01:17:16.759Z,99.90
2018-06-29T01:19:20.558Z,99.90
2018-06-29T01:21:24.471Z,99.90
2018-06-29T01:23:28.335Z,99.90
2018-06-29T01:25:32.319Z,99.90
2018-06-29T01:27:36.104Z,99.90
2018-06-29T01:29:39.979Z,99.90
2018-06-29T01:31:43.738Z,99.90
2018-06-29T01:33:47.618Z,99.90
2018-06-29T01:35:51.375Z,99.90
2018-06-29T01:37:55.277Z,99.90
2018-06-29T01:39:59.024Z,99.90
2018-06-29T01:42:02.891Z,99.90
2018-06-29T01:44:06.726Z,99.90
2018-06-29T01:46:10.612Z,99.90
2018-06-29T01:48:14.386Z,99.90
2018-06-29T01:50:18.273Z,99.90
2018-06-29T01:52:22.067Z,99.90
2018-06-29T01:54:26.007Z,99.90
2018-06-29T01:56:29.811Z,99.90
2018-06-29T01:58:33.739Z,99.90
2018-06-29T02:00:37.533Z,99.90
2018-06-29T02:02:41.487Z,99.90
2018-06-29T02:04:45.211Z,99.90
2018-06-29T02:06:49.057Z,99.90
2018-06-29T02:08:52.823Z,99.90
2018-06-29T02:10:56.665Z,99.90
2018-06-29T02:13:00.405Z,99.90
2018-06-29T02:15:04.776Z,99.90
2018-06-29T02:17:08.522Z,99.90
2018-06-29T02:19:12.471Z,99.90
2018-06-29T02:21:16.249Z,99.90
2018-06-29T02:23:20.149Z,99.90
2018-06-29T02:25:23.939Z,99.90
2018-06-29T02:27:27.840Z,99.90
2018-06-29T02:29:31.614Z,99.90
2018-06-29T02:31:35.620Z,99.90
2018-06-29T02:33:39.398Z,99.90
2018-06-29T02:35:43.307Z,99.90
2018-06-29T02:37:47.106Z,99.90
2018-06-29T02:39:50.988Z,99.90
2018-06-29T02:41:54.774Z,99.90
2018-06-29T02:43:58.658Z,99.90
2018-06-29T02:46:02.454Z,99.90
2018-06-29T02:50:09.878Z,99.90
2018-06-29T02:52:13.772Z,99.90
2018-06-29T02:54:17.550Z,99.90
2018-06-29T02:56:21.457Z,99.90
2018-06-29T02:58:25.262Z,99.90
2018-06-29T03:00:29.189Z,99.90
2018-06-29T03:02:33.382Z,99.90
2018-06-29T03:04:37.692Z,99.90
2018-06-29T03:08:45.797Z,99.90
2018-06-29T03:10:49.647Z,99.90
2018-06-29T03:12:53.609Z,99.90
2018-06-29T03:14:57.475Z,99.90
2018-06-29T03:17:01.392Z,99.90
2018-06-29T03:19:05.146Z,99.90
2018-06-29T03:21:09.852Z,99.90
2018-06-29T03:23:17.567Z,99.90
2018-06-29T03:25:21.552Z,99.90
2018-06-29T03:27:25.414Z,99.90
2018-06-29T03:29:29.358Z,99.90
2018-06-29T03:31:33.186Z,99.90
2018-06-29T03:33:37.044Z,99.90
2018-06-29T03:35:40.890Z,99.90
2018-06-29T03:37:44.823Z,99.90
2018-06-29T03:39:48.616Z,99.90
2018-06-29T03:41:52.534Z,99.90
2018-06-29T03:43:56.310Z,99.90
2018-06-29T03:46:00.406Z,99.90
2018-06-29T03:48:04.213Z,99.90
2018-06-29T03:50:30.599Z,99.90
2018-06-29T03:52:34.472Z,99.90
2018-06-29T03:54:38.187Z,99.90
2018-06-29T03:56:42.006Z,99.90
2018-06-29T03:58:45.831Z,99.90
2018-06-29T04:00:49.687Z,99.90
2018-06-29T04:02:55.771Z,99.90
2018-06-29T04:04:59.735Z,99.90
2018-06-29T04:07:03.557Z,99.90
2018-06-29T04:09:09.192Z,99.90
2018-06-29T04:11:13.068Z,99.90
2018-06-29T04:13:16.894Z,99.90
2018-06-29T04:15:20.882Z,99.90
2018-06-29T04:17:24.849Z,99.90
2018-06-29T04:19:28.736Z,99.90
2018-06-29T04:21:32.646Z,99.90
2018-06-29T04:23:36.590Z,99.90
2018-06-29T04:25:40.435Z,99.90
2018-06-29T04:27:44.303Z,99.90
2018-06-29T04:29:48.080Z,99.90
2018-06-29T04:31:51.957Z,99.90
2018-06-29T04:33:55.724Z,99.90
2018-06-29T04:35:59.630Z,99.90
2018-06-29T04:38:03.761Z,99.90
2018-06-29T04:40:07.684Z,99.90
2018-06-29T04:42:14.872Z,99.90
2018-06-29T04:44:18.825Z,99.90
2018-06-29T04:46:22.592Z,99.90
2018-06-29T04:48:26.474Z,99.90
2018-06-29T04:50:30.246Z,99.90
2018-06-29T04:52:34.146Z,99.90
2018-06-29T04:54:38.251Z,99.90
2018-06-29T04:56:42.153Z,99.90
2018-06-29T04:58:45.925Z,99.90
2018-06-29T05:00:51.396Z,99.90
2018-06-29T05:02:56.467Z,99.90
2018-06-29T05:05:00.385Z,99.90
2018-06-29T05:07:04.752Z,99.90
2018-06-29T05:09:09.140Z,99.90
2018-06-29T05:11:12.945Z,99.90
2018-06-29T05:13:16.958Z,99.90
2018-06-29T05:15:20.781Z,99.90
2018-06-29T05:17:25.383Z,99.90
2018-06-29T05:19:29.342Z,99.90
2018-06-29T05:21:33.293Z,99.90
2018-06-29T05:23:37.037Z,99.90
2018-06-29T05:25:40.986Z,99.90
2018-06-29T05:27:44.945Z,99.90
2018-06-29T05:29:48.816Z,99.90
2018-06-29T05:31:52.583Z,99.90
2018-06-29T05:33:56.514Z,99.90
2018-06-29T05:36:00.855Z,99.90
2018-06-29T05:38:04.928Z,99.90
2018-06-29T05:40:08.775Z,99.90
2018-06-29T05:42:12.690Z,99.90
2018-06-29T05:44:16.443Z,99.90
2018-06-29T05:46:20.495Z,99.90
2018-06-29T05:51:02.309Z,99.90
2018-06-29T05:53:06.464Z,99.90
2018-06-29T05:55:10.501Z,99.90
2018-06-29T05:57:14.266Z,99.90
2018-06-29T05:59:18.260Z,99.90
2018-06-29T06:01:22.160Z,99.90
2018-06-29T06:03:26.053Z,99.90
2018-06-29T06:05:29.896Z,99.90
2018-06-29T06:07:33.800Z,99.90
2018-06-29T06:09:37.571Z,99.90
2018-06-29T06:11:41.776Z,99.90
2018-06-29T06:13:45.547Z,99.90
2018-06-29T06:15:49.554Z,99.90
2018-06-29T06:17:53.401Z,99.90
2018-06-29T06:20:05.397Z,99.90
2018-06-29T06:22:09.825Z,99.90
2018-06-29T06:24:13.733Z,99.90
2018-06-29T06:26:17.667Z,99.90
2018-06-29T06:28:21.535Z,99.90
2018-06-29T06:30:25.503Z,99.90
2018-06-29T06:32:29.413Z,99.90
2018-06-29T06:34:33.539Z,99.90
2018-06-29T06:36:37.358Z,99.90
2018-06-29T06:38:41.302Z,99.90
2018-06-29T06:40:45.100Z,99.90
2018-06-29T06:42:48.989Z,99.90
2018-06-29T06:44:52.820Z,99.90
2018-06-29T06:46:56.834Z,99.90
2018-06-29T06:49:00.624Z,99.90
2018-06-29T06:51:04.580Z,99.90
2018-06-29T06:53:08.430Z,99.90
2018-06-29T06:55:12.320Z,99.90
2018-06-29T06:57:16.128Z,99.90
2018-06-29T06:59:20.179Z,99.90
2018-06-29T07:01:23.956Z,99.90
2018-06-29T07:03:27.920Z,99.90
2018-06-29T07:05:31.781Z,99.90
2018-06-29T07:07:35.700Z,99.90
2018-06-29T07:09:39.490Z,99.90
2018-06-29T07:11:43.427Z,99.90
2018-06-29T07:13:47.485Z,99.90
2018-06-29T07:15:51.517Z,99.90
2018-06-29T07:17:55.353Z,99.90
2018-06-29T07:19:59.330Z,99.90
2018-06-29T07:22:03.154Z,99.90
2018-06-29T07:24:07.202Z,99.90
2018-06-29T07:26:11.102Z,99.90
2018-06-29T07:28:15.105Z,99.90
2018-06-29T07:30:18.997Z,99.90
2018-06-29T07:32:22.916Z,99.90
2018-06-29T07:34:26.752Z,99.90
2018-06-29T07:36:30.744Z,99.90
2018-06-29T07:38:34.556Z,99.90
2018-06-29T07:40:38.558Z,99.90
2018-06-29T07:42:42.421Z,99.90
2018-06-29T07:44:46.318Z,99.90
2018-06-29T07:46:50.102Z,99.90
2018-06-29T07:48:53.996Z,99.90
2018-06-29T07:50:57.797Z,99.90
2018-06-29T07:53:01.686Z,99.90
2018-06-29T07:55:05.634Z,99.90
2018-06-29T07:57:09.544Z,99.90
2018-06-29T07:59:13.628Z,99.90
2018-06-29T08:01:17.523Z,99.90
2018-06-29T08:03:21.281Z,99.90
2018-06-29T08:05:25.157Z,98.90
2018-06-29T08:07:28.964Z,99.10
2018-06-29T08:09:32.834Z,99.70
2018-06-29T08:13:40.230Z,99.90
2018-06-29T08:15:44.011Z,99.20
2018-06-29T08:17:47.923Z,99.20
2018-06-29T08:19:51.816Z,99.00
2018-06-29T08:21:55.811Z,97.70
2018-06-29T08:23:59.610Z,98.40
2018-06-29T08:26:15.460Z,96.60
2018-06-29T08:28:19.326Z,99.90
2018-06-29T08:30:23.158Z,97.60
2018-06-29T08:32:27.087Z,97.60
2018-06-29T08:34:30.901Z,97.30
2018-06-29T08:36:34.864Z,96.50
2018-06-29T08:38:39.041Z,98.90
2018-06-29T08:40:42.932Z,95.40
2018-06-29T08:42:46.789Z,96.00
2018-06-29T08:44:50.684Z,95.80
2018-06-29T08:46:54.495Z,97.60
2018-06-29T08:48:58.369Z,95.70
2018-06-29T08:51:02.231Z,96.50
2018-06-29T08:53:06.112Z,97.00
2018-06-29T08:55:10.048Z,94.50
2018-06-29T08:57:13.924Z,93.10
2018-06-29T08:59:17.740Z,93.60
2018-06-29T09:01:21.732Z,93.50
2018-06-29T09:03:25.477Z,92.30
2018-06-29T09:05:29.373Z,92.00
2018-06-29T09:07:33.174Z,91.50
2018-06-29T09:09:37.326Z,91.80
2018-06-29T09:11:41.112Z,91.40
2018-06-29T09:13:45.031Z,91.20
2018-06-29T09:15:48.807Z,92.00
2018-06-29T09:17:52.772Z,91.40
2018-06-29T09:19:56.564Z,91.70
2018-06-29T09:22:00.503Z,90.20
2018-06-29T09:24:04.480Z,90.20
2018-06-29T09:26:08.433Z,91.40
2018-06-29T09:28:12.235Z,87.70
2018-06-29T09:30:16.201Z,90.80
2018-06-29T09:32:19.996Z,87.70
2018-06-29T09:34:23.963Z,89.90
2018-06-29T09:36:27.882Z,89.20
2018-06-29T09:38:31.720Z,85.00
2018-06-29T09:40:35.510Z,86.00
2018-06-29T09:42:39.601Z,87.30
2018-06-29T09:44:43.295Z,85.60
2018-06-29T09:46:47.322Z,87.20
2018-06-29T09:48:51.102Z,88.40
2018-06-29T09:50:54.980Z,87.10
2018-06-29T09:52:58.780Z,85.50
2018-06-29T09:55:02.699Z,87.00
2018-06-29T09:57:06.521Z,88.00
2018-06-29T09:59:11.552Z,85.20
2018-06-29T10:01:15.671Z,87.80
2018-06-29T10:03:19.536Z,83.50
2018-06-29T10:05:23.452Z,83.30
2018-06-29T10:07:27.235Z,86.50
2018-06-29T10:09:31.113Z,87.20
2018-06-29T10:11:34.911Z,83.30
2018-06-29T10:13:38.819Z,86.30
2018-06-29T10:15:42.628Z,84.10
2018-06-29T10:17:46.632Z,87.50
2018-06-29T10:19:50.555Z,87.60
2018-06-29T10:21:54.570Z,85.50
2018-06-29T10:23:58.381Z,87.00
2018-06-29T10:26:02.322Z,89.30
2018-06-29T10:28:06.358Z,81.20
2018-06-29T10:30:10.436Z,83.80
2018-06-29T10:32:14.301Z,91.50
2018-06-29T10:34:18.197Z,84.80
2018-06-29T10:36:22.000Z,86.70
2018-06-29T10:38:25.988Z,86.90
2018-06-29T10:40:29.860Z,80.90
2018-06-29T10:42:33.735Z,81.40
2018-06-29T10:44:37.627Z,81.50
2018-06-29T10:46:42.288Z,81.60
2018-06-29T10:48:46.111Z,80.50
2018-06-29T10:50:50.097Z,79.20
2018-06-29T10:52:54.057Z,82.00
2018-06-29T10:54:57.920Z,81.60
2018-06-29T10:57:01.759Z,79.20
2018-06-29T10:59:05.786Z,79.40
2018-06-29T11:01:09.758Z,80.90
2018-06-29T11:03:13.705Z,81.00
2018-06-29T11:05:17.506Z,82.10
2018-06-29T11:07:21.451Z,83.40
2018-06-29T11:09:25.278Z,78.80
2018-06-29T11:11:29.260Z,81.30
2018-06-29T11:13:33.048Z,79.20
2018-06-29T11:15:36.940Z,79.60
2018-06-29T11:17:40.716Z,81.80
2018-06-29T11:19:44.693Z,78.20
2018-06-29T11:21:48.574Z,78.20
2018-06-29T11:23:52.499Z,83.80
2018-06-29T11:25:56.423Z,78.00
2018-06-29T11:28:00.317Z,81.40
2018-06-29T11:30:04.280Z,78.40
2018-06-29T11:32:08.618Z,81.10
2018-06-29T11:34:12.886Z,80.70
2018-06-29T11:36:16.856Z,78.60
2018-06-29T11:38:20.804Z,80.50
2018-06-29T11:40:24.705Z,78.50
2018-06-29T11:42:28.656Z,78.10
2018-06-29T11:44:32.572Z,78.00
2018-06-29T11:46:36.918Z,81.10
2018-06-29T11:48:40.968Z,78.40
2018-06-29T11:50:45.138Z,77.00
2018-06-29T11:52:49.413Z,78.70
2018-06-29T11:54:53.721Z,77.70
2018-06-29T11:59:01.236Z,78.40
2018-06-29T12:01:05.385Z,82.20
2018-06-29T12:03:09.349Z,79.60
2018-06-29T12:05:13.315Z,79.90
2018-06-29T12:07:17.178Z,77.10
2018-06-29T12:09:21.276Z,76.50
2018-06-29T12:11:25.045Z,77.50
2018-06-29T12:13:28.968Z,77.80
2018-06-29T12:15:32.801Z,76.30
2018-06-29T12:17:36.830Z,76.10
2018-06-29T12:19:40.601Z,77.20
2018-06-29T12:21:44.587Z,78.80
2018-06-29T12:23:48.431Z,80.10
2018-06-29T12:25:52.382Z,76.60
2018-06-29T12:27:56.350Z,76.90
2018-06-29T12:30:00.215Z,78.90
2018-06-29T12:32:03.996Z,80.60
2018-06-29T12:34:07.968Z,76.30
2018-06-29T12:36:11.873Z,76.00
2018-06-29T12:38:15.868Z,73.70
2018-06-29T12:40:19.781Z,75.40
2018-06-29T12:42:23.792Z,76.30
2018-06-29T12:44:27.594Z,75.80
2018-06-29T12:46:31.516Z,71.70
2018-06-29T12:48:35.384Z,72.80
2018-06-29T12:50:39.302Z,73.50
2018-06-29T12:52:43.082Z,73.80
2018-06-29T12:54:47.353Z,74.70
2018-06-29T12:56:51.444Z,71.20
2018-06-29T12:58:55.542Z,72.10
2018-06-29T13:00:59.441Z,73.90
2018-06-29T13:03:03.429Z,75.00
2018-06-29T13:05:07.340Z,72.60
2018-06-29T13:07:11.302Z,74.10
2018-06-29T13:09:16.919Z,71.20
2018-06-29T13:11:21.037Z,72.90
2018-06-29T13:13:24.847Z,74.80
2018-06-29T13:15:28.877Z,73.40
2018-06-29T13:17:32.748Z,72.90
2018-06-29T13:19:36.718Z,74.60
2018-06-29T13:21:40.562Z,73.90
2018-06-29T13:23:44.466Z,72.80
2018-06-29T13:25:48.310Z,71.90
2018-06-29T13:27:52.221Z,73.80
2018-06-29T13:29:55.991Z,71.60
2018-06-29T13:31:59.884Z,71.80
2018-06-29T13:34:03.798Z,73.60
2018-06-29T13:36:07.818Z,72.80
2018-06-29T13:38:11.767Z,73.10
2018-06-29T13:40:15.730Z,72.10
2018-06-29T13:42:20.063Z,73.10
2018-06-29T13:44:23.942Z,74.10
2018-06-29T13:46:27.749Z,71.90
2018-06-29T13:48:31.620Z,72.80
2018-06-29T13:50:35.583Z,73.50
2018-06-29T13:52:39.519Z,75.00
2018-06-29T13:54:43.428Z,71.80
2018-06-29T13:56:47.375Z,73.60
2018-06-29T13:58:51.286Z,72.20
2018-06-29T14:00:55.184Z,73.10
2018-06-29T14:02:59.094Z,72.00
2018-06-29T14:05:03.062Z,72.10
2018-06-29T14:07:06.896Z,71.90
2018-06-29T14:09:10.839Z,72.10
2018-06-29T14:11:16.062Z,72.30
2018-06-29T14:13:20.092Z,74.90
2018-06-29T14:15:24.492Z,72.10
2018-06-29T14:17:28.446Z,73.50
2018-06-29T14:19:32.279Z,73.90
2018-06-29T14:21:36.216Z,76.10
2018-06-29T14:23:40.016Z,75.30
2018-06-29T14:25:43.892Z,71.90
2018-06-29T14:27:47.698Z,72.80
2018-06-29T14:29:51.709Z,71.90
2018-06-29T14:31:55.530Z,73.00
2018-06-29T14:33:59.477Z,76.50
2018-06-29T14:36:03.484Z,75.30
2018-06-29T14:38:07.463Z,72.30
2018-06-29T14:40:11.273Z,77.10
2018-06-29T14:42:15.171Z,76.00
2018-06-29T14:44:18.960Z,74.40
2018-06-29T14:46:22.882Z,74.10
2018-06-29T14:50:30.463Z,75.40
2018-06-29T14:52:34.801Z,75.90
2018-06-29T14:54:38.761Z,76.00
2018-06-29T14:56:42.636Z,77.80
2018-06-29T14:58:46.625Z,74.20
2018-06-29T15:00:50.476Z,73.70
2018-06-29T15:02:54.470Z,72.70
2018-06-29T15:04:58.323Z,74.70
2018-06-29T15:07:02.404Z,74.50
2018-06-29T15:09:08.515Z,73.20
2018-06-29T15:11:12.515Z,73.20
2018-06-29T15:13:16.341Z,74.70
2018-06-29T15:15:20.318Z,72.40
2018-06-29T15:17:24.210Z,74.40
2018-06-29T15:19:28.157Z,73.40
2018-06-29T15:21:32.051Z,74.10
2018-06-29T15:23:36.636Z,71.40
2018-06-29T15:25:40.462Z,71.40
2018-06-29T15:27:44.468Z,72.80
2018-06-29T15:29:48.291Z,71.00
2018-06-29T15:31:52.264Z,72.10
2018-06-29T15:33:56.099Z,72.50
2018-06-29T15:36:00.062Z,74.80
2018-06-29T15:38:03.875Z,73.00
2018-06-29T15:40:07.850Z,70.70
2018-06-29T15:42:11.661Z,71.20
2018-06-29T15:44:15.583Z,71.20
2018-06-29T15:46:19.386Z,70.30
2018-06-29T15:48:23.340Z,70.70
2018-06-29T15:50:27.164Z,71.00
2018-06-29T15:52:31.069Z,73.70
2018-06-29T15:54:34.949Z,70.00
2018-06-29T15:56:38.942Z,71.00
2018-06-29T15:58:42.825Z,70.70
2018-06-29T16:00:46.779Z,70.40
2018-06-29T16:02:50.549Z,69.90
2018-06-29T16:04:54.520Z,69.40
2018-06-29T16:06:58.398Z,69.50
2018-06-29T16:09:02.423Z,68.10
2018-06-29T16:11:06.251Z,69.70
2018-06-29T16:13:10.194Z,68.80
2018-06-29T16:15:14.023Z,68.30
2018-06-29T16:17:17.971Z,69.70
2018-06-29T16:19:21.874Z,68.30
2018-06-29T16:21:25.778Z,68.10
2018-06-29T16:23:29.736Z,68.80
2018-06-29T16:25:33.739Z,67.60
2018-06-29T16:27:37.615Z,68.90
2018-06-29T16:29:41.621Z,69.20
2018-06-29T16:31:45.451Z,69.00
2018-06-29T16:33:49.384Z,67.10
2018-06-29T16:35:53.186Z,67.60
2018-06-29T16:37:57.230Z,68.10
2018-06-29T16:40:01.058Z,68.90
2018-06-29T16:42:05.057Z,69.70
2018-06-29T16:44:08.997Z,68.80
2018-06-29T16:46:13.004Z,69.60
2018-06-29T16:48:16.918Z,70.40
2018-06-29T16:50:20.950Z,70.20
2018-06-29T16:52:24.882Z,68.70
2018-06-29T16:54:28.844Z,69.60
2018-06-29T16:56:32.729Z,69.30
2018-06-29T16:58:36.794Z,70.00
2018-06-29T17:00:40.635Z,70.10
2018-06-29T17:02:44.672Z,70.40
2018-06-29T17:04:48.508Z,68.60
2018-06-29T17:06:52.613Z,69.90
2018-06-29T17:08:56.402Z,69.50
2018-06-29T17:11:00.336Z,69.40
2018-06-29T17:13:04.116Z,70.80
2018-06-29T17:15:08.422Z,70.10
2018-06-29T17:17:12.185Z,70.30
2018-06-29T17:19:16.188Z,70.40
2018-06-29T17:21:19.971Z,69.40
2018-06-29T17:23:23.889Z,69.10
2018-06-29T17:25:27.666Z,70.00
2018-06-29T17:27:32.826Z,70.60
2018-06-29T17:29:36.744Z,71.10
2018-06-29T17:31:40.553Z,70.90
2018-06-29T17:33:46.387Z,71.80
2018-06-29T17:35:50.273Z,70.20
2018-06-29T17:38:14.287Z,71.50
2018-06-29T17:40:37.057Z,71.90
2018-06-29T17:42:41.028Z,73.50
2018-06-29T17:44:44.901Z,71.60
2018-06-29T17:46:49.865Z,71.30
2018-06-29T17:48:54.114Z,70.90
2018-06-29T17:50:58.632Z,71.80
2018-06-29T17:53:02.462Z,71.40
2018-06-29T17:55:06.624Z,71.40
2018-06-29T17:57:10.500Z,71.30
2018-06-29T17:59:14.559Z,71.60
2018-06-29T18:01:18.378Z,72.40
2018-06-29T18:03:22.275Z,71.00
2018-06-29T18:05:26.128Z,71.30
2018-06-29T18:07:30.120Z,71.50
2018-06-29T18:09:34.036Z,73.90
2018-06-29T18:11:38.097Z,73.90
2018-06-29T18:13:41.923Z,74.60
2018-06-29T18:15:47.040Z,75.60
2018-06-29T18:17:51.055Z,74.70
2018-06-29T18:19:54.852Z,75.00
2018-06-29T18:21:58.774Z,75.50
2018-06-29T18:24:02.580Z,76.20
2018-06-29T18:26:06.510Z,77.80
2018-06-29T18:28:10.502Z,77.30
2018-06-29T18:30:14.434Z,78.40
2018-06-29T18:32:18.330Z,78.20
2018-06-29T18:34:22.265Z,78.50
2018-06-29T18:36:26.056Z,79.20
2018-06-29T18:38:31.241Z,80.20
2018-06-29T18:40:35.223Z,80.20
2018-06-29T18:42:39.172Z,82.00
2018-06-29T18:44:43.145Z,82.90
2018-06-29T18:46:46.981Z,82.50
2018-06-29T18:48:51.009Z,83.70
2018-06-29T18:50:54.799Z,84.50
2018-06-29T18:52:58.756Z,84.10
2018-06-29T18:55:02.571Z,84.30
2018-06-29T18:57:06.593Z,85.30
2018-06-29T18:59:14.461Z,86.10
2018-06-29T19:01:18.440Z,86.50
2018-06-29T19:03:22.217Z,86.50
2018-06-29T19:05:26.139Z,85.90
2018-06-29T19:07:29.918Z,85.80
2018-06-29T19:09:33.995Z,87.30
2018-06-29T19:11:38.249Z,86.60
2018-06-29T19:13:42.495Z,87.60
2018-06-29T19:15:46.456Z,87.50
2018-06-29T19:17:50.391Z,88.20
2018-06-29T19:19:54.277Z,87.20
2018-06-29T19:21:58.243Z,87.30
2018-06-29T19:24:02.083Z,90.10
2018-06-29T19:26:07.205Z,88.50
2018-06-29T19:28:11.220Z,90.20
2018-06-29T19:30:15.129Z,91.60
2018-06-29T19:32:19.104Z,91.70
2018-06-29T19:34:22.901Z,91.00
2018-06-29T19:36:27.001Z,90.50
2018-06-29T19:38:30.984Z,91.40
2018-06-29T19:40:34.897Z,91.00
2018-06-29T19:42:38.698Z,91.70
2018-06-29T19:44:42.629Z,95.10
2018-06-29T19:46:46.529Z,95.20
2018-06-29T19:48:50.480Z,95.10
2018-06-29T19:50:54.260Z,96.20
2018-06-29T19:52:58.251Z,95.30
2018-06-29T19:55:02.283Z,96.90
2018-06-29T19:57:06.753Z,96.30
2018-06-29T19:59:11.004Z,96.90
2018-06-29T20:01:14.909Z,97.10
2018-06-29T20:03:21.742Z,99.20
2018-06-29T20:05:25.980Z,99.90
2018-06-29T20:07:29.804Z,99.10
2018-06-29T20:09:33.720Z,99.90
2018-06-29T20:11:37.718Z,99.90
2018-06-29T20:13:41.966Z,99.90
2018-06-29T20:15:45.736Z,99.90
2018-06-29T20:17:49.653Z,99.90
2018-06-29T20:19:53.440Z,99.90
2018-06-29T20:21:57.353Z,99.90
2018-06-29T20:24:01.253Z,99.90
2018-06-29T20:26:05.433Z,99.90
2018-06-29T20:28:09.246Z,99.90
2018-06-29T20:30:14.071Z,99.90
2018-06-29T20:32:17.878Z,99.90
2018-06-29T20:34:21.812Z,99.90
2018-06-29T20:36:25.557Z,99.90
2018-06-29T20:38:29.514Z,99.90
2018-06-29T20:40:33.245Z,99.90
2018-06-29T20:42:37.164Z,99.90
2018-06-29T20:44:40.946Z,99.90
2018-06-29T20:46:44.896Z,99.90
2018-06-29T20:48:48.652Z,99.90
2018-06-29T20:50:52.676Z,99.90
2018-06-29T20:52:56.447Z,99.90
2018-06-29T20:55:00.354Z,99.90
2018-06-29T20:57:04.199Z,99.90
2018-06-29T20:59:09.423Z,99.90
2018-06-29T21:01:13.347Z,99.90
2018-06-29T21:03:17.186Z,99.90
2018-06-29T21:05:21.107Z,99.90
2018-06-29T21:07:25.036Z,99.90
2018-06-29T21:09:28.926Z,99.90
2018-06-29T21:11:32.743Z,99.90
2018-06-29T21:13:36.661Z,99.90
2018-06-29T21:15:40.448Z,99.90
2018-06-29T21:17:44.461Z,99.90
2018-06-29T21:19:48.226Z,99.90
2018-06-29T21:21:52.215Z,99.90
2018-06-29T21:23:56.022Z,99.90
2018-06-29T21:25:59.967Z,99.90
2018-06-29T21:28:03.752Z,99.90
2018-06-29T21:30:08.454Z,99.90
2018-06-29T21:32:12.240Z,99.90
2018-06-29T21:34:16.155Z,99.90
2018-06-29T21:36:19.961Z,99.90
2018-06-29T21:38:23.858Z,99.90
2018-06-29T21:40:27.670Z,99.90
2018-06-29T21:42:31.671Z,99.90
2018-06-29T21:44:35.441Z,99.90
2018-06-29T21:46:39.350Z,99.90
2018-06-29T21:48:43.130Z,99.90
2018-06-29T21:50:47.046Z,99.90
2018-06-29T21:52:50.841Z,99.90
2018-06-29T21:54:54.775Z,99.90
2018-06-29T21:56:58.580Z,99.90
2018-06-29T21:59:02.525Z,99.90
2018-06-29T22:01:06.434Z,99.90
2018-06-29T22:03:12.464Z,99.90
2018-06-29T22:05:17.699Z,99.90
2018-06-29T22:07:21.600Z,99.90
2018-06-29T22:09:25.393Z,99.90
2018-06-29T22:11:29.969Z,99.90
2018-06-29T22:13:33.745Z,99.90
2018-06-29T22:15:37.650Z,99.90
2018-06-29T22:17:41.494Z,99.90
2018-06-29T22:19:45.550Z,99.90
2018-06-29T22:21:49.390Z,99.90
2018-06-29T22:23:53.463Z,99.90
2018-06-29T22:25:57.239Z,99.90
2018-06-29T22:28:01.226Z,99.90
2018-06-29T22:30:05.166Z,99.90
2018-06-29T22:32:09.069Z,99.90
2018-06-29T22:34:12.865Z,99.90
2018-06-29T22:36:16.807Z,99.90
2018-06-29T22:38:20.601Z,99.90
2018-06-29T22:42:27.899Z,99.90
2018-06-29T22:44:31.865Z,99.90
2018-06-29T22:46:35.680Z,99.90
2018-06-29T22:48:39.630Z,99.90
2018-06-29T22:50:43.452Z,99.90
2018-06-29T22:52:47.422Z,99.90
2018-06-29T22:54:51.196Z,99.90
2018-06-29T22:56:55.104Z,99.90
2018-06-29T22:58:59.277Z,99.90
2018-06-29T23:01:03.211Z,99.90
2018-06-29T23:03:10.185Z,99.90
2018-06-29T23:05:14.378Z,99.90
2018-06-29T23:07:18.177Z,99.90
2018-06-29T23:09:22.106Z,99.90
2018-06-29T23:11:25.875Z,99.90
2018-06-29T23:13:29.972Z,99.90
2018-06-29T23:15:33.776Z,99.90
2018-06-29T23:17:37.675Z,99.90
2018-06-29T23:19:41.519Z,99.90
2018-06-29T23:21:45.440Z,99.90
2018-06-29T23:23:49.257Z,99.90
2018-06-29T23:25:53.193Z,99.90
2018-06-29T23:27:56.977Z,99.90
2018-06-29T23:30:00.882Z,99.90
2018-06-29T23:32:04.684Z,99.90
2018-06-29T23:34:08.667Z,99.90
2018-06-29T23:36:12.493Z,99.90
2018-06-29T23:38:16.388Z,99.90
2018-06-29T23:40:20.239Z,99.90
2018-06-29T23:42:24.153Z,99.90
2018-06-29T23:44:27.974Z,99.90
2018-06-29T23:46:31.929Z,99.90
2018-06-29T23:48:35.727Z,99.90
2018-06-29T23:50:39.660Z,99.90
2018-06-29T23:52:43.482Z,99.90
2018-06-29T23:54:47.432Z,99.90
2018-06-29T23:56:51.299Z,99.90
2018-06-29T23:58:55.215Z,99.90
